Archival Weather

Chicago O'Hare International

Chicago, Illinois (KORD)

Report from: Thursday, June 23, 2022 6:51 AM CDT
Current time: Sunday, June 26, 2022 1:15 PM CDT

Current weather
Weather history
Weather forecast

Temperature20.6°C (69.1°F)
Dew point14.4°C (57.9°F)
Winds 6 kts (3.1 m/s, 6.9 mph) Northeast (50°)
Visibility10 mi. (16.1 km)
Clouds Few clouds 20,000 ft. (6,096 m)
Scattered clouds 25,000 ft. (7,620 m)
Altimeter30.07 in.Hg (1018 mB)
Relative humidity68 %
Density altitude712 ft. (217 m)
Sea-level pressure101.8 kPa (1018 mB, 30.06 in.Hg)
Max temp last 6 hours22.2°C (72.0°F)
Min temp last 6 hours18.3°C (64.9°F)
Remarks Automated weather observing station with precipitation discriminator
Pressure rising more quickly
Flight conditions Visual Meteorological Conditions
Raw dataKORD 231151Z 05006KT 10SM FEW200 SCT250 21/14 A3007 RMK AO2 SLP178 T02060144 10222 20183 53008
An error has occurred. This application may no longer respond until reloaded. Reload 🗙